Time;durP1;ratioP1;P1;durP2;ratioP2;P2;SDS_P1;SDS_P2;PMS_P1;PMS_P2;Temp;Humidity;BMP_temperature;BMP_pressure;BME280_temperature;BME280_humidity;BME280_pressure;Samples;Min_cycle;Max_cycle;Signal;HPM_P1;HPM_P2
2022/02/11 00:01:09;;;;;;;6.63;4.30;;;;;;;;;;5030660;28;20179;-45
2022/02/11 00:09:05;;;;;;;5.25;4.75;;;;;;;;;;5030412;28;20257;-44
2022/02/11 00:11:38;;;;;;;6.40;4.70;;;;;;;;;;5030981;28;20191;-46
2022/02/11 00:14:05;;;;;;;6.95;4.30;;;;;;;;;;5029648;28;20436;-46
2022/02/11 00:16:32;;;;;;;8.60;5.10;;;;;;;;;;5030776;28;20176;-47
2022/02/11 00:18:59;;;;;;;7.30;4.70;;;;;;;;;;5030422;28;20245;-45
2022/02/11 00:21:25;;;;;;;5.82;4.85;;;;;;;;;;5030585;28;20229;-48
2022/02/11 00:23:52;;;;;;;8.27;5.53;;;;;;;;;;5030503;28;20814;-47
2022/02/11 00:26:18;;;;;;;10.23;5.90;;;;;;;;;;5030576;28;20221;-46
2022/02/11 00:33:53;;;;;;;7.30;5.75;;;;;;;;;;5030837;28;20178;-45
2022/02/11 00:36:23;;;;;;;8.27;6.63;;;;;;;;;;5030538;28;20187;-45
2022/02/11 00:42:54;;;;;;;10.80;6.93;;;;;;;;;;5030979;28;20324;-45
2022/02/11 01:06:04;;;;;;;13.85;10.35;;;;;;;;;;5033809;28;20207;-47
2022/02/11 01:08:30;;;;;;;13.53;8.87;;;;;;;;;;5033684;28;20196;-46
2022/02/11 01:10:59;;;;;;;19.80;9.57;;;;;;;;;;5033582;28;20399;-46
2022/02/11 01:13:24;;;;;;;13.07;9.70;;;;;;;;;;5033730;28;20506;-47
2022/02/11 01:15:57;;;;;;;16.60;11.47;;;;;;;;;;5033602;28;20613;-47
2022/02/11 01:18:23;;;;;;;15.18;10.52;;;;;;;;;;5033702;28;20489;-46
2022/02/11 01:20:56;;;;;;;18.80;11.23;;;;;;;;;;5033242;28;20184;-46
2022/02/11 01:26:31;;;;;;;20.88;10.60;;;;;;;;;;5033513;28;20237;-47
2022/02/11 01:34:22;;;;;;;24.85;13.52;;;;;;;;;;5033438;28;20187;-46
2022/02/11 01:55:47;;;;;;;20.13;13.30;;;;;;;;;;5033111;28;20178;-46
2022/02/11 02:01:13;;;;;;;27.90;15.30;;;;;;;;;;5032534;28;20194;-47
2022/02/11 02:12:23;;;;;;;30.27;16.05;;;;;;;;;;5012968;28;20225;-46
2022/02/11 02:18:55;;;;;;;27.10;15.50;;;;;;;;;;5012980;28;20595;-46
2022/02/11 02:38:42;;;;;;;27.13;15.45;;;;;;;;;;5032263;28;20241;-46
2022/02/11 02:57:21;;;;;;;23.20;13.65;;;;;;;;;;5032223;28;20265;-46
2022/02/11 03:57:47;;;;;;;19.10;12.40;;;;;;;;;;5030026;28;20187;-46
2022/02/11 04:59:58;;;;;;;25.73;16.25;;;;;;;;;;5034157;28;20359;-46
2022/02/11 05:02:26;;;;;;;20.77;14.45;;;;;;;;;;5033940;28;20168;-46
2022/02/11 05:04:53;;;;;;;24.95;15.35;;;;;;;;;;5034033;28;20520;-46
2022/02/11 05:07:19;;;;;;;23.13;14.02;;;;;;;;;;5033872;28;20172;-46
2022/02/11 05:09:45;;;;;;;31.70;16.92;;;;;;;;;;5033478;28;20207;-46
2022/02/11 05:12:11;;;;;;;31.73;17.23;;;;;;;;;;5033818;28;20194;-47
2022/02/11 05:14:37;;;;;;;25.10;17.60;;;;;;;;;;5033752;28;20427;-46
2022/02/11 05:17:03;;;;;;;26.33;15.67;;;;;;;;;;5033605;28;20405;-46
2022/02/11 05:19:29;;;;;;;26.95;16.52;;;;;;;;;;5033386;28;20436;-46
2022/02/11 05:21:55;;;;;;;28.10;14.80;;;;;;;;;;5032925;28;20187;-46
2022/02/11 05:24:21;;;;;;;29.75;16.17;;;;;;;;;;5033576;28;20757;-47
2022/02/11 05:26:47;;;;;;;35.67;19.67;;;;;;;;;;5033497;28;20178;-46
2022/02/11 05:29:13;;;;;;;25.23;16.53;;;;;;;;;;5032927;28;20469;-46
2022/02/11 05:31:39;;;;;;;33.70;18.27;;;;;;;;;;5033396;28;20397;-46
2022/02/11 05:34:05;;;;;;;28.10;15.50;;;;;;;;;;5033287;28;20254;-47
2022/02/11 05:36:31;;;;;;;31.02;15.75;;;;;;;;;;5033324;28;20449;-46
2022/02/11 05:38:57;;;;;;;22.97;15.30;;;;;;;;;;5033097;28;20675;-46
2022/02/11 05:41:23;;;;;;;27.93;15.80;;;;;;;;;;5033258;28;20407;-47
2022/02/11 05:43:49;;;;;;;30.00;14.73;;;;;;;;;;5032676;28;20497;-46
2022/02/11 05:46:15;;;;;;;22.55;13.60;;;;;;;;;;5032997;28;20424;-46
2022/02/11 05:48:43;;;;;;;23.27;14.10;;;;;;;;;;5032996;28;20195;-46
2022/02/11 05:51:09;;;;;;;21.73;14.63;;;;;;;;;;5032911;28;20164;-46
2022/02/11 05:53:35;;;;;;;37.63;15.05;;;;;;;;;;5032043;28;20179;-46
2022/02/11 05:56:02;;;;;;;30.45;15.23;;;;;;;;;;5033173;28;20695;-46
2022/02/11 05:58:28;;;;;;;20.73;12.57;;;;;;;;;;5033120;28;20624;-46
2022/02/11 06:00:54;;;;;;;27.88;15.30;;;;;;;;;;5032781;28;20191;-46
2022/02/11 06:03:20;;;;;;;23.33;13.67;;;;;;;;;;5032961;28;20287;-46
2022/02/11 06:05:46;;;;;;;24.83;13.37;;;;;;;;;;5032930;28;20398;-46
2022/02/11 06:08:12;;;;;;;31.10;13.10;;;;;;;;;;5032765;28;20797;-47
2022/02/11 06:10:38;;;;;;;24.67;14.63;;;;;;;;;;5032449;28;20517;-46
2022/02/11 06:13:04;;;;;;;30.33;15.50;;;;;;;;;;5032572;28;20166;-46
2022/02/11 06:15:31;;;;;;;32.20;14.10;;;;;;;;;;5032529;28;20202;-46
2022/02/11 06:17:56;;;;;;;24.33;12.25;;;;;;;;;;5032670;28;20259;-46
2022/02/11 06:20:27;;;;;;;21.20;11.90;;;;;;;;;;5031403;28;20278;-47
2022/02/11 06:22:54;;;;;;;20.45;10.10;;;;;;;;;;5032447;28;20426;-46
2022/02/11 06:25:20;;;;;;;29.60;12.80;;;;;;;;;;5032436;28;20186;-46
2022/02/11 06:27:46;;;;;;;17.90;10.63;;;;;;;;;;5032271;28;20200;-46
2022/02/11 06:30:13;;;;;;;23.10;10.77;;;;;;;;;;5031824;28;20442;-46
2022/02/11 06:32:39;;;;;;;19.83;10.52;;;;;;;;;;5032508;28;20961;-46
2022/02/11 06:35:05;;;;;;;18.10;10.55;;;;;;;;;;5032230;28;20623;-46
2022/02/11 06:37:31;;;;;;;26.73;10.90;;;;;;;;;;5032152;28;20194;-46
2022/02/11 06:39:57;;;;;;;15.17;9.27;;;;;;;;;;5031882;28;20195;-47
2022/02/11 06:42:23;;;;;;;21.13;9.30;;;;;;;;;;5032013;28;20501;-47
2022/02/11 06:44:51;;;;;;;18.10;8.70;;;;;;;;;;5032006;28;20414;-46
2022/02/11 06:47:17;;;;;;;12.80;6.78;;;;;;;;;;5031985;28;20403;-46
2022/02/11 06:49:43;;;;;;;16.65;7.03;;;;;;;;;;5031675;28;20219;-46
2022/02/11 06:52:09;;;;;;;8.87;6.43;;;;;;;;;;5030762;28;20203;-47
2022/02/11 06:54:36;;;;;;;7.88;6.00;;;;;;;;;;5032694;28;20395;-48
2022/02/11 06:57:02;;;;;;;21.70;8.35;;;;;;;;;;5031181;28;20164;-45
2022/02/11 06:59:28;;;;;;;13.10;7.55;;;;;;;;;;5031596;28;20274;-45
2022/02/11 07:01:54;;;;;;;20.00;7.27;;;;;;;;;;5031975;28;20302;-48
2022/02/11 07:04:20;;;;;;;12.55;6.75;;;;;;;;;;5031911;28;20414;-47
2022/02/11 07:06:46;;;;;;;10.68;6.07;;;;;;;;;;5031800;28;20171;-48
2022/02/11 07:09:13;;;;;;;15.00;5.78;;;;;;;;;;5031433;28;20274;-46
2022/02/11 07:11:39;;;;;;;13.00;4.82;;;;;;;;;;5031551;28;20240;-47
2022/02/11 07:14:05;;;;;;;17.35;6.50;;;;;;;;;;5031486;28;20588;-45
2022/02/11 07:16:31;;;;;;;10.07;5.85;;;;;;;;;;5031450;28;20176;-48
2022/02/11 07:18:57;;;;;;;19.13;6.13;;;;;;;;;;5031116;28;20195;-45
2022/02/11 07:21:23;;;;;;;7.83;5.00;;;;;;;;;;5030554;28;20426;-45
2022/02/11 07:23:49;;;;;;;14.73;5.90;;;;;;;;;;5031373;28;20817;-46
2022/02/11 07:26:15;;;;;;;9.03;4.27;;;;;;;;;;5031273;28;20413;-45
2022/02/11 07:28:41;;;;;;;16.23;4.77;;;;;;;;;;5030928;28;20560;-44
2022/02/11 07:31:07;;;;;;;12.23;5.07;;;;;;;;;;5031143;28;20399;-45
2022/02/11 07:33:32;;;;;;;11.20;4.90;;;;;;;;;;5030280;28;20398;-46
2022/02/11 07:35:59;;;;;;;13.00;3.50;;;;;;;;;;5025336;28;20417;-45
2022/02/11 07:38:25;;;;;;;14.48;3.92;;;;;;;;;;5031089;28;20464;-44
2022/02/11 07:40:51;;;;;;;8.67;3.57;;;;;;;;;;5030783;28;20729;-46
2022/02/11 07:43:17;;;;;;;5.40;3.03;;;;;;;;;;5029820;28;20413;-44
2022/02/11 07:45:42;;;;;;;6.20;3.00;;;;;;;;;;5030876;28;20403;-45
2022/02/11 07:48:08;;;;;;;12.50;3.00;;;;;;;;;;5030686;28;20454;-45
2022/02/11 07:50:35;;;;;;;12.87;3.57;;;;;;;;;;5029751;28;20438;-46
2022/02/11 07:53:01;;;;;;;14.50;2.90;;;;;;;;;;5030779;28;20394;-44
2022/02/11 07:55:27;;;;;;;10.23;2.83;;;;;;;;;;5030882;28;20179;-45
2022/02/11 07:57:54;;;;;;;6.63;3.20;;;;;;;;;;5030795;28;20409;-45
2022/02/11 08:00:23;;;;;;;7.80;2.45;;;;;;;;;;5030950;28;20457;-44
2022/02/11 08:02:49;;;;;;;14.90;5.15;;;;;;;;;;5033108;28;20655;-47
2022/02/11 08:05:15;;;;;;;6.60;2.90;;;;;;;;;;5030089;28;20186;-47
2022/02/11 08:07:44;;;;;;;19.47;2.70;;;;;;;;;;5032695;28;20410;-44
2022/02/11 08:10:10;;;;;;;7.90;2.70;;;;;;;;;;5034701;28;20452;-46
2022/02/11 08:12:36;;;;;;;11.48;3.15;;;;;;;;;;5034937;28;20598;-46
2022/02/11 08:15:03;;;;;;;5.20;2.93;;;;;;;;;;5035087;28;20168;-45
2022/02/11 08:17:29;;;;;;;7.65;3.00;;;;;;;;;;5034847;28;20399;-44
2022/02/11 08:19:55;;;;;;;13.37;2.70;;;;;;;;;;5033440;28;20282;-45
2022/02/11 08:22:21;;;;;;;8.57;2.60;;;;;;;;;;5034628;28;20959;-47
2022/02/11 08:24:47;;;;;;;12.10;2.92;;;;;;;;;;5034586;28;20979;-47
2022/02/11 08:27:14;;;;;;;4.50;2.10;;;;;;;;;;5034601;28;20175;-45
2022/02/11 08:29:41;;;;;;;7.00;2.15;;;;;;;;;;5034155;28;20543;-45
2022/02/11 08:32:07;;;;;;;14.40;2.55;;;;;;;;;;5034496;28;20159;-44
2022/02/11 08:34:33;;;;;;;10.35;3.60;;;;;;;;;;5034417;28;20168;-47
2022/02/11 08:36:59;;;;;;;14.13;2.73;;;;;;;;;;5034492;28;20183;-45
2022/02/11 08:39:25;;;;;;;6.57;2.40;;;;;;;;;;5033934;28;20414;-45
2022/02/11 08:41:51;;;;;;;8.33;2.17;;;;;;;;;;5034244;28;20417;-45
2022/02/11 08:44:17;;;;;;;12.90;2.40;;;;;;;;;;5034242;28;20402;-48
2022/02/11 08:46:43;;;;;;;9.52;2.42;;;;;;;;;;5034277;28;20398;-45
2022/02/11 08:49:09;;;;;;;11.18;3.40;;;;;;;;;;5033897;28;20208;-44
2022/02/11 08:51:35;;;;;;;11.10;2.67;;;;;;;;;;5033073;28;20183;-44
2022/02/11 08:54:01;;;;;;;9.75;2.78;;;;;;;;;;5034006;28;20160;-45
2022/02/11 08:56:29;;;;;;;14.60;2.73;;;;;;;;;;5034041;28;20613;-45
2022/02/11 08:58:56;;;;;;;8.15;3.75;;;;;;;;;;5033752;28;21057;-45
2022/02/11 09:01:22;;;;;;;8.35;2.97;;;;;;;;;;5034031;28;20167;-45
2022/02/11 09:03:48;;;;;;;5.90;2.63;;;;;;;;;;5033925;28;20229;-45
2022/02/11 09:06:15;;;;;;;5.47;2.13;;;;;;;;;;5034096;28;20171;-45
2022/02/11 09:08:41;;;;;;;9.73;2.70;;;;;;;;;;5033741;28;20549;-44
2022/02/11 09:11:13;;;;;;;11.18;3.63;;;;;;;;;;5033828;28;20160;-44
2022/02/11 09:13:39;;;;;;;13.88;3.20;;;;;;;;;;5034086;28;20582;-44
2022/02/11 09:16:05;;;;;;;9.67;3.00;;;;;;;;;;5034160;28;20195;-45
2022/02/11 09:18:31;;;;;;;10.30;2.95;;;;;;;;;;5033180;28;20465;-44
2022/02/11 09:20:58;;;;;;;14.63;4.10;;;;;;;;;;5032686;28;20256;-45
2022/02/11 09:23:25;;;;;;;17.92;2.83;;;;;;;;;;5033693;28;20476;-45
2022/02/11 09:25:52;;;;;;;17.70;3.03;;;;;;;;;;5033669;28;20643;-47
2022/02/11 09:28:18;;;;;;;18.02;3.95;;;;;;;;;;5033517;28;20200;-44
2022/02/11 09:30:44;;;;;;;10.90;3.60;;;;;;;;;;5033326;28;20194;-46
2022/02/11 09:33:12;;;;;;;10.15;2.92;;;;;;;;;;5033484;28;20160;-45
2022/02/11 09:35:38;;;;;;;18.25;3.17;;;;;;;;;;5033269;28;20890;-45
2022/02/11 09:38:05;;;;;;;15.88;2.95;;;;;;;;;;5033322;28;20708;-45
2022/02/11 09:40:31;;;;;;;23.40;3.45;;;;;;;;;;5033021;28;20187;-45
2022/02/11 09:42:57;;;;;;;11.57;2.63;;;;;;;;;;5033174;28;20171;-46
2022/02/11 09:45:24;;;;;;;15.40;3.38;;;;;;;;;;5033182;28;20407;-45
2022/02/11 09:47:51;;;;;;;11.40;3.67;;;;;;;;;;5033149;28;20176;-45
2022/02/11 09:50:18;;;;;;;6.07;2.57;;;;;;;;;;5031503;28;21175;-45
2022/02/11 09:52:45;;;;;;;11.47;2.67;;;;;;;;;;5032978;28;20414;-45
2022/02/11 09:57:57;;;;;;;13.93;2.80;;;;;;;;;;5033320;28;20670;-45
2022/02/11 10:00:25;;;;;;;11.37;3.03;;;;;;;;;;5032619;28;20446;-45
2022/02/11 10:02:57;;;;;;;13.97;3.40;;;;;;;;;;5032792;28;20444;-45
2022/02/11 10:05:33;;;;;;;7.70;2.90;;;;;;;;;;5032768;28;20428;-45
2022/02/11 10:08:00;;;;;;;15.30;3.10;;;;;;;;;;5032646;28;20210;-47
2022/02/11 10:10:38;;;;;;;10.32;2.40;;;;;;;;;;5032483;28;20459;-45
2022/02/11 10:13:07;;;;;;;10.40;2.75;;;;;;;;;;5032683;28;20224;-45
2022/02/11 10:15:36;;;;;;;18.07;3.20;;;;;;;;;;5032458;28;20164;-47
2022/02/11 10:18:02;;;;;;;11.52;2.70;;;;;;;;;;5032631;28;20403;-47
2022/02/11 10:20:32;;;;;;;10.03;3.07;;;;;;;;;;5031323;28;20211;-45
2022/02/11 10:23:11;;;;;;;12.07;3.33;;;;;;;;;;5032444;28;20848;-48
2022/02/11 10:25:51;;;;;;;11.03;3.33;;;;;;;;;;5032377;28;20402;-45
2022/02/11 10:28:27;;;;;;;6.97;2.13;;;;;;;;;;5031465;28;20459;-45
2022/02/11 10:31:10;;;;;;;8.90;2.73;;;;;;;;;;5030969;28;20422;-45
2022/02/11 10:33:48;;;;;;;11.90;2.87;;;;;;;;;;5032217;28;20410;-45
2022/02/11 10:36:21;;;;;;;6.80;2.45;;;;;;;;;;5032179;28;20394;-45
2022/02/11 10:38:59;;;;;;;5.70;2.23;;;;;;;;;;5032076;28;20200;-48
2022/02/11 10:41:26;;;;;;;10.13;2.50;;;;;;;;;;5032298;28;20471;-45
2022/02/11 10:43:57;;;;;;;17.48;3.30;;;;;;;;;;5032335;28;20819;-44
2022/02/11 10:46:24;;;;;;;10.67;2.73;;;;;;;;;;5032351;28;20169;-45
2022/02/11 10:48:50;;;;;;;7.80;2.73;;;;;;;;;;5031625;28;20460;-49
2022/02/11 10:51:23;;;;;;;10.70;2.90;;;;;;;;;;5030521;28;20438;-45
2022/02/11 10:53:49;;;;;;;17.55;2.63;;;;;;;;;;5031775;28;20895;-48
2022/02/11 10:56:19;;;;;;;9.93;2.30;;;;;;;;;;5031816;28;20183;-45
2022/02/11 10:58:57;;;;;;;5.97;2.67;;;;;;;;;;5031714;28;20469;-46
2022/02/11 11:01:27;;;;;;;13.90;4.20;;;;;;;;;;5031679;28;20864;-46
2022/02/11 11:03:52;;;;;;;9.38;2.78;;;;;;;;;;5030649;28;20175;-45
2022/02/11 11:06:19;;;;;;;8.33;2.50;;;;;;;;;;5031641;28;20183;-45
2022/02/11 11:08:47;;;;;;;9.30;3.20;;;;;;;;;;5031287;28;20541;-45
2022/02/11 11:11:14;;;;;;;16.00;3.63;;;;;;;;;;5031382;28;20191;-47
2022/02/11 11:13:48;;;;;;;21.60;2.70;;;;;;;;;;5031265;28;20168;-45
2022/02/11 11:16:15;;;;;;;12.07;3.40;;;;;;;;;;5031489;28;20172;-45
2022/02/11 11:18:41;;;;;;;10.70;2.83;;;;;;;;;;5031293;28;20403;-45
2022/02/11 11:21:12;;;;;;;11.03;2.03;;;;;;;;;;5030250;28;20513;-45
2022/02/11 11:23:44;;;;;;;11.55;3.03;;;;;;;;;;5031078;28;20418;-47
2022/02/11 11:26:10;;;;;;;11.18;4.32;;;;;;;;;;5031126;28;20172;-45
2022/02/11 11:28:49;;;;;;;15.98;3.65;;;;;;;;;;5031024;28;20203;-48
2022/02/11 11:31:23;;;;;;;16.50;2.80;;;;;;;;;;5031502;28;20504;-45
2022/02/11 11:33:49;;;;;;;11.20;2.67;;;;;;;;;;5031102;28;20445;-46
2022/02/11 11:36:17;;;;;;;6.32;2.22;;;;;;;;;;5031111;28;20239;-46
2022/02/11 11:38:44;;;;;;;11.63;2.70;;;;;;;;;;5030894;28;20173;-44
2022/02/11 11:41:13;;;;;;;9.33;2.70;;;;;;;;;;5030805;28;20476;-46
2022/02/11 11:43:46;;;;;;;9.63;2.33;;;;;;;;;;5030815;28;20409;-45
2022/02/11 11:46:14;;;;;;;11.33;2.60;;;;;;;;;;5031043;28;20931;-48
2022/02/11 11:48:47;;;;;;;15.00;3.47;;;;;;;;;;5030961;28;20458;-45
2022/02/11 11:51:13;;;;;;;7.07;2.60;;;;;;;;;;5030220;28;20430;-46
2022/02/11 11:53:38;;;;;;;20.77;4.20;;;;;;;;;;5031123;28;20263;-48
2022/02/11 11:56:24;;;;;;;11.53;3.73;;;;;;;;;;5031240;28;20403;-44
2022/02/11 11:58:50;;;;;;;11.37;2.40;;;;;;;;;;5030878;28;20437;-46
2022/02/11 12:01:19;;;;;;;14.20;2.50;;;;;;;;;;5030910;28;20454;-46
2022/02/11 12:04:04;;;;;;;17.33;2.67;;;;;;;;;;5030811;28;20408;-47
2022/02/11 12:06:32;;;;;;;14.87;2.77;;;;;;;;;;5031052;28;20416;-46
2022/02/11 12:08:58;;;;;;;7.97;2.57;;;;;;;;;;5030424;28;20542;-45
2022/02/11 12:11:24;;;;;;;5.67;2.20;;;;;;;;;;5030752;28;20429;-46
2022/02/11 12:13:50;;;;;;;9.73;2.40;;;;;;;;;;5030728;28;20433;-46
2022/02/11 12:16:17;;;;;;;7.43;2.63;;;;;;;;;;5030701;28;20405;-45
2022/02/11 12:18:46;;;;;;;11.47;2.13;;;;;;;;;;5030610;28;20413;-46
2022/02/11 12:21:13;;;;;;;9.17;2.20;;;;;;;;;;5029241;28;20460;-47
2022/02/11 12:29:10;;;;;;;12.03;2.07;;;;;;;;;;5030349;28;20501;-45
2022/02/11 12:31:38;;;;;;;11.63;2.47;;;;;;;;;;5030500;28;20418;-48
2022/02/11 12:34:20;;;;;;;3.67;2.47;;;;;;;;;;5030443;28;20414;-46
2022/02/11 12:36:46;;;;;;;8.07;2.43;;;;;;;;;;5021702;28;20458;-45
2022/02/11 12:39:22;;;;;;;10.77;3.30;;;;;;;;;;5015000;28;20469;-45
2022/02/11 12:41:50;;;;;;;6.33;2.40;;;;;;;;;;5009251;28;20438;-46
2022/02/11 12:44:23;;;;;;;7.63;1.90;;;;;;;;;;5010502;28;20406;-47
2022/02/11 12:46:50;;;;;;;3.57;1.80;;;;;;;;;;5010642;28;20407;-45
2022/02/11 12:49:16;;;;;;;7.73;2.50;;;;;;;;;;5010358;28;20462;-47
2022/02/11 12:51:47;;;;;;;5.90;2.60;;;;;;;;;;5022855;28;20432;-46
2022/02/11 12:54:13;;;;;;;4.20;1.57;;;;;;;;;;5032422;28;20917;-47
2022/02/11 12:56:39;;;;;;;9.83;3.27;;;;;;;;;;5034029;28;20441;-47
2022/02/11 12:59:06;;;;;;;7.37;2.10;;;;;;;;;;5033764;28;20434;-48
2022/02/11 13:01:33;;;;;;;8.70;1.67;;;;;;;;;;5033920;28;20471;-47
2022/02/11 13:03:59;;;;;;;10.03;1.90;;;;;;;;;;5033904;28;20405;-48
2022/02/11 13:06:25;;;;;;;10.80;2.40;;;;;;;;;;5033888;28;20428;-47
2022/02/11 13:09:01;;;;;;;6.97;2.10;;;;;;;;;;5033497;28;20449;-47
2022/02/11 13:11:27;;;;;;;5.80;1.60;;;;;;;;;;5033819;28;20401;-47
2022/02/11 13:14:00;;;;;;;3.83;1.60;;;;;;;;;;5033775;28;20454;-47
2022/02/11 13:16:26;;;;;;;8.67;2.47;;;;;;;;;;5033912;28;20935;-47
2022/02/11 13:18:52;;;;;;;11.43;2.43;;;;;;;;;;5033600;28;20408;-47
2022/02/11 13:21:20;;;;;;;8.30;2.20;;;;;;;;;;5032848;28;20431;-47
2022/02/11 13:23:50;;;;;;;5.63;1.60;;;;;;;;;;5033590;28;20454;-47
2022/02/11 13:26:16;;;;;;;4.57;2.17;;;;;;;;;;5033603;28;20397;-48
2022/02/11 13:28:44;;;;;;;6.20;1.83;;;;;;;;;;5033333;28;20496;-47
2022/02/11 13:31:10;;;;;;;4.70;2.20;;;;;;;;;;5032630;28;20435;-47
2022/02/11 13:33:36;;;;;;;7.40;2.13;;;;;;;;;;5033363;28;20928;-47
2022/02/11 13:36:08;;;;;;;8.00;2.10;;;;;;;;;;5032327;28;20430;-47
2022/02/11 13:38:35;;;;;;;6.53;2.10;;;;;;;;;;5032811;28;20412;-47
2022/02/11 13:41:09;;;;;;;11.83;2.60;;;;;;;;;;5033038;28;20446;-47
2022/02/11 13:43:48;;;;;;;5.60;1.83;;;;;;;;;;5033143;28;20405;-47
2022/02/11 13:46:24;;;;;;;15.67;2.40;;;;;;;;;;5033207;28;20411;-47
2022/02/11 13:48:54;;;;;;;16.87;2.30;;;;;;;;;;5032836;28;20957;-47
2022/02/11 13:51:21;;;;;;;11.53;2.20;;;;;;;;;;5029113;28;20427;-47
2022/02/11 13:53:52;;;;;;;9.23;2.57;;;;;;;;;;5031829;28;20427;-47
2022/02/11 13:56:24;;;;;;;18.50;2.63;;;;;;;;;;5032806;28;20387;-47
2022/02/11 13:59:02;;;;;;;11.53;2.73;;;;;;;;;;5032037;28;20443;-47
2022/02/11 14:01:28;;;;;;;15.00;3.07;;;;;;;;;;5028945;28;20410;-49
2022/02/11 14:03:58;;;;;;;13.83;2.43;;;;;;;;;;5031551;28;20433;-49
2022/02/11 14:06:25;;;;;;;10.20;2.37;;;;;;;;;;5030997;28;20419;-49
2022/02/11 14:08:51;;;;;;;7.67;1.90;;;;;;;;;;5032380;28;20457;-49
2022/02/11 14:11:21;;;;;;;11.90;2.20;;;;;;;;;;5032660;28;20412;-49
2022/02/11 14:13:48;;;;;;;6.47;2.50;;;;;;;;;;5031165;28;20484;-49
2022/02/11 14:16:14;;;;;;;10.30;2.00;;;;;;;;;;5032476;28;20416;-49
2022/02/11 14:18:42;;;;;;;15.20;2.50;;;;;;;;;;5030928;28;20863;-49
2022/02/11 14:21:10;;;;;;;6.10;2.87;;;;;;;;;;5032368;28;20401;-49
2022/02/11 14:23:36;;;;;;;13.87;2.70;;;;;;;;;;5032412;28;20777;-49
2022/02/11 14:26:02;;;;;;;8.50;2.20;;;;;;;;;;5032497;28;20402;-49
2022/02/11 14:28:30;;;;;;;13.50;3.20;;;;;;;;;;5031917;28;20460;-49
2022/02/11 14:30:57;;;;;;;5.90;2.60;;;;;;;;;;5031936;28;20449;-49
2022/02/11 14:33:23;;;;;;;8.30;2.37;;;;;;;;;;5032318;28;20534;-49
2022/02/11 14:35:49;;;;;;;11.53;2.70;;;;;;;;;;5032257;28;20913;-49
2022/02/11 14:38:15;;;;;;;8.33;2.67;;;;;;;;;;5031424;28;20437;-49
2022/02/11 14:41:45;;;;;;;8.90;2.20;;;;;;;;;;5029516;28;20466;-50
2022/02/11 14:43:27;;;;;;;8.17;2.27;;;;;;;;;;5030580;28;20511;-49
2022/02/11 14:45:54;;;;;;;10.90;3.00;;;;;;;;;;5030426;28;20518;-49
2022/02/11 14:48:20;;;;;;;9.40;2.30;;;;;;;;;;5012140;28;20445;-49
2022/02/11 14:50:47;;;;;;;13.07;2.80;;;;;;;;;;5012947;28;20421;-49
2022/02/11 14:53:12;;;;;;;4.93;1.80;;;;;;;;;;5031168;28;20428;-50
2022/02/11 14:55:38;;;;;;;5.73;1.87;;;;;;;;;;5031474;28;20731;-50
2022/02/11 14:58:04;;;;;;;9.17;2.77;;;;;;;;;;5028634;28;20420;-50
2022/02/11 15:00:30;;;;;;;5.80;2.23;;;;;;;;;;5030373;28;20478;-49
2022/02/11 15:02:57;;;;;;;7.60;1.90;;;;;;;;;;5031526;28;20403;-50
2022/02/11 15:05:23;;;;;;;9.63;2.20;;;;;;;;;;5031273;28;20459;-50
2022/02/11 15:07:49;;;;;;;6.77;2.10;;;;;;;;;;5031654;28;20408;-50
2022/02/11 15:10:15;;;;;;;8.00;2.73;;;;;;;;;;5031068;28;20429;-49
2022/02/11 15:12:41;;;;;;;7.93;2.70;;;;;;;;;;5031467;28;20407;-49
2022/02/11 15:15:07;;;;;;;12.10;2.37;;;;;;;;;;5031543;28;20410;-49
2022/02/11 15:17:33;;;;;;;8.50;2.20;;;;;;;;;;5030973;28;20394;-50
2022/02/11 15:19:59;;;;;;;8.37;2.60;;;;;;;;;;5031349;28;20768;-49
2022/02/11 15:22:25;;;;;;;12.93;2.37;;;;;;;;;;5031495;28;20402;-49
2022/02/11 15:24:51;;;;;;;9.67;2.03;;;;;;;;;;5030435;28;20922;-49
2022/02/11 15:27:17;;;;;;;12.40;2.03;;;;;;;;;;5031280;28;20962;-49
2022/02/11 15:29:44;;;;;;;8.10;3.23;;;;;;;;;;5030770;28;20971;-49
2022/02/11 15:32:10;;;;;;;12.67;2.93;;;;;;;;;;5031253;28;20442;-49
2022/02/11 15:34:37;;;;;;;4.93;1.97;;;;;;;;;;5030920;28;20404;-49
2022/02/11 15:37:04;;;;;;;6.63;2.27;;;;;;;;;;5031090;28;20419;-50
2022/02/11 15:39:29;;;;;;;10.13;2.10;;;;;;;;;;5030828;28;20858;-49
2022/02/11 15:41:55;;;;;;;6.30;1.97;;;;;;;;;;5031069;28;20498;-49
2022/02/11 15:44:21;;;;;;;6.17;2.40;;;;;;;;;;5031093;28;20442;-49
2022/02/11 15:46:47;;;;;;;6.23;2.40;;;;;;;;;;5030792;28;20899;-50
2022/02/11 15:49:14;;;;;;;3.90;2.00;;;;;;;;;;5030434;28;20490;-49
2022/02/11 15:51:39;;;;;;;8.00;2.47;;;;;;;;;;5031001;28;20437;-50
2022/02/11 15:54:06;;;;;;;5.77;2.07;;;;;;;;;;5029079;28;20428;-49
2022/02/11 15:56:32;;;;;;;7.53;2.20;;;;;;;;;;5028287;28;20460;-50
2022/02/11 15:58:58;;;;;;;20.60;3.27;;;;;;;;;;5026191;28;20498;-49
2022/02/11 16:01:24;;;;;;;7.80;2.37;;;;;;;;;;5027019;28;20799;-49
2022/02/11 16:03:50;;;;;;;10.00;2.30;;;;;;;;;;5030559;28;20421;-50
2022/02/11 16:06:16;;;;;;;8.87;2.83;;;;;;;;;;5030800;28;20808;-49
2022/02/11 16:08:42;;;;;;;10.93;2.23;;;;;;;;;;5030917;28;20488;-49
2022/02/11 16:11:08;;;;;;;9.30;2.60;;;;;;;;;;5030734;28;21082;-49
2022/02/11 16:13:34;;;;;;;4.33;2.17;;;;;;;;;;5030801;28;20406;-49
2022/02/11 16:16:00;;;;;;;11.20;2.57;;;;;;;;;;5030856;28;20421;-49
2022/02/11 16:18:26;;;;;;;6.70;2.40;;;;;;;;;;5030621;28;20780;-49
2022/02/11 16:20:54;;;;;;;10.83;2.43;;;;;;;;;;5030393;28;20509;-50
2022/02/11 16:23:21;;;;;;;8.23;2.53;;;;;;;;;;5030527;28;20407;-49
2022/02/11 16:25:48;;;;;;;8.30;2.07;;;;;;;;;;5030620;28;20399;-49
2022/02/11 16:28:15;;;;;;;3.17;2.23;;;;;;;;;;5030931;28;20450;-49
2022/02/11 16:30:42;;;;;;;10.20;2.13;;;;;;;;;;5034074;28;20448;-49
2022/02/11 16:33:08;;;;;;;13.07;2.53;;;;;;;;;;5034314;28;20485;-50
2022/02/11 16:35:36;;;;;;;5.37;2.33;;;;;;;;;;5034424;28;20433;-49
2022/02/11 16:38:03;;;;;;;14.60;2.67;;;;;;;;;;5034405;28;20395;-49
2022/02/11 16:40:29;;;;;;;4.18;1.95;;;;;;;;;;5034187;28;20358;-49
2022/02/11 16:42:55;;;;;;;3.78;1.90;;;;;;;;;;5034265;28;20171;-49
2022/02/11 16:45:21;;;;;;;6.60;1.73;;;;;;;;;;5034224;28;20222;-49
2022/02/11 16:47:47;;;;;;;3.72;2.75;;;;;;;;;;5034272;28;20390;-49
2022/02/11 16:50:13;;;;;;;5.17;2.37;;;;;;;;;;5033905;28;20550;-49
2022/02/11 16:52:40;;;;;;;5.93;2.40;;;;;;;;;;5034098;28;20430;-50
2022/02/11 16:55:07;;;;;;;2.55;1.67;;;;;;;;;;5033257;28;20668;-49
2022/02/11 16:57:34;;;;;;;4.55;2.00;;;;;;;;;;5034095;28;20646;-49
2022/02/11 17:00:00;;;;;;;7.90;2.75;;;;;;;;;;5033668;28;20223;-49
2022/02/11 17:02:27;;;;;;;12.00;2.20;;;;;;;;;;5032567;28;20227;-49
2022/02/11 17:04:53;;;;;;;6.10;2.40;;;;;;;;;;5034265;28;20199;-49
2022/02/11 17:07:19;;;;;;;4.93;1.80;;;;;;;;;;5034035;28;20247;-49
2022/02/11 17:09:49;;;;;;;17.30;2.83;;;;;;;;;;5033532;28;20215;-50
2022/02/11 17:12:15;;;;;;;3.65;2.05;;;;;;;;;;5033709;28;20237;-49
2022/02/11 17:14:41;;;;;;;1.80;1.67;;;;;;;;;;5033558;28;20620;-49
2022/02/11 17:17:07;;;;;;;7.90;2.50;;;;;;;;;;5033612;28;20407;-49
2022/02/11 17:19:33;;;;;;;17.25;1.67;;;;;;;;;;5033456;28;20794;-49
2022/02/11 17:22:00;;;;;;;5.68;1.75;;;;;;;;;;5033537;28;20644;-49
2022/02/11 17:24:28;;;;;;;8.25;2.20;;;;;;;;;;5032627;28;20184;-49
2022/02/11 17:26:55;;;;;;;2.30;1.50;;;;;;;;;;5033551;28;20192;-49
2022/02/11 17:29:22;;;;;;;2.38;1.73;;;;;;;;;;5032688;28;20199;-49
2022/02/11 17:31:48;;;;;;;6.47;2.00;;;;;;;;;;5033568;28;20172;-49
2022/02/11 17:34:14;;;;;;;10.48;1.95;;;;;;;;;;5033443;28;20189;-49
2022/02/11 17:36:40;;;;;;;6.43;2.23;;;;;;;;;;5033422;28;20181;-49
2022/02/11 17:39:06;;;;;;;7.00;2.37;;;;;;;;;;5032721;28;20472;-49
2022/02/11 17:41:32;;;;;;;4.88;2.20;;;;;;;;;;5032847;28;20410;-49
2022/02/11 17:43:58;;;;;;;7.32;3.15;;;;;;;;;;5033074;28;20171;-49
2022/02/11 17:46:26;;;;;;;6.40;1.83;;;;;;;;;;5033210;28;20269;-49
2022/02/11 17:48:52;;;;;;;4.95;2.00;;;;;;;;;;5032965;28;20855;-49
2022/02/11 17:51:18;;;;;;;3.97;1.60;;;;;;;;;;5033128;28;20214;-49
2022/02/11 17:53:44;;;;;;;4.13;1.80;;;;;;;;;;5032066;28;20179;-49
2022/02/11 17:56:10;;;;;;;5.23;3.10;;;;;;;;;;5033246;28;20438;-49
2022/02/11 17:58:36;;;;;;;5.10;1.90;;;;;;;;;;5032671;28;20410;-50
2022/02/11 18:01:02;;;;;;;5.10;1.77;;;;;;;;;;5032828;28;20893;-49
2022/02/11 18:03:29;;;;;;;4.50;1.88;;;;;;;;;;5032727;28;20172;-49
2022/02/11 18:05:55;;;;;;;9.30;1.83;;;;;;;;;;5032767;28;20175;-49
2022/02/11 18:08:23;;;;;;;4.25;2.17;;;;;;;;;;5032512;28;20207;-50
2022/02/11 18:10:50;;;;;;;5.20;1.63;;;;;;;;;;5032334;28;20210;-49
2022/02/11 18:13:16;;;;;;;6.82;1.92;;;;;;;;;;5032119;28;20175;-49
2022/02/11 18:15:44;;;;;;;6.78;2.20;;;;;;;;;;5032643;28;20159;-49
2022/02/11 18:18:10;;;;;;;7.65;2.00;;;;;;;;;;5032628;28;20160;-49
2022/02/11 18:20:36;;;;;;;3.73;1.87;;;;;;;;;;5032359;28;20701;-50
2022/02/11 18:23:02;;;;;;;4.63;2.10;;;;;;;;;;5032097;28;21061;-50
2022/02/11 18:25:29;;;;;;;5.47;1.80;;;;;;;;;;5030788;28;20514;-49
2022/02/11 18:27:58;;;;;;;2.80;1.75;;;;;;;;;;5032109;28;20172;-50
2022/02/11 18:30:25;;;;;;;5.75;2.85;;;;;;;;;;5032106;28;20195;-49
2022/02/11 18:32:51;;;;;;;4.22;2.42;;;;;;;;;;5032301;28;20171;-49